sensor_id;sensor_type;location;lat;lon;timestamp;P1;durP1;ratioP1;P2;durP2;ratioP2
38027;SDS011;23837;51.172;9.226;2024-03-22T00:01:48;17.80;;;9.75;;
38027;SDS011;23837;51.172;9.226;2024-03-22T00:04:13;17.38;;;9.32;;
38027;SDS011;23837;51.172;9.226;2024-03-22T00:06:40;17.20;;;9.35;;
38027;SDS011;23837;51.172;9.226;2024-03-22T00:09:05;17.75;;;8.82;;
38027;SDS011;23837;51.172;9.226;2024-03-22T00:11:31;17.10;;;8.70;;
38027;SDS011;23837;51.172;9.226;2024-03-22T00:13:57;15.65;;;8.88;;
38027;SDS011;23837;51.172;9.226;2024-03-22T00:16:22;15.65;;;8.93;;
38027;SDS011;23837;51.172;9.226;2024-03-22T00:18:47;18.98;;;9.40;;
38027;SDS011;23837;51.172;9.226;2024-03-22T00:21:13;18.00;;;9.27;;
38027;SDS011;23837;51.172;9.226;2024-03-22T00:23:38;15.88;;;8.88;;
38027;SDS011;23837;51.172;9.226;2024-03-22T00:26:03;18.70;;;9.00;;
38027;SDS011;23837;51.172;9.226;2024-03-22T00:28:29;15.80;;;8.38;;
38027;SDS011;23837;51.172;9.226;2024-03-22T00:30:54;25.55;;;11.70;;
38027;SDS011;23837;51.172;9.226;2024-03-22T00:33:19;16.35;;;8.75;;
38027;SDS011;23837;51.172;9.226;2024-03-22T00:35:45;17.20;;;8.60;;
38027;SDS011;23837;51.172;9.226;2024-03-22T00:38:10;14.68;;;7.95;;
38027;SDS011;23837;51.172;9.226;2024-03-22T00:40:35;14.23;;;8.10;;
38027;SDS011;23837;51.172;9.226;2024-03-22T00:43:01;15.25;;;7.57;;
38027;SDS011;23837;51.172;9.226;2024-03-22T00:45:26;13.90;;;8.25;;
38027;SDS011;23837;51.172;9.226;2024-03-22T00:47:51;13.07;;;7.90;;
38027;SDS011;23837;51.172;9.226;2024-03-22T00:50:17;16.85;;;8.38;;
38027;SDS011;23837;51.172;9.226;2024-03-22T00:52:42;15.15;;;8.02;;
38027;SDS011;23837;51.172;9.226;2024-03-22T00:55:07;15.32;;;7.90;;
38027;SDS011;23837;51.172;9.226;2024-03-22T00:57:33;17.55;;;8.50;;
38027;SDS011;23837;51.172;9.226;2024-03-22T00:59:58;15.60;;;8.02;;
38027;SDS011;23837;51.172;9.226;2024-03-22T01:02:23;14.77;;;7.45;;
38027;SDS011;23837;51.172;9.226;2024-03-22T01:04:49;14.05;;;8.43;;
38027;SDS011;23837;51.172;9.226;2024-03-22T01:07:14;11.82;;;7.82;;
38027;SDS011;23837;51.172;9.226;2024-03-22T01:09:39;14.20;;;8.18;;
38027;SDS011;23837;51.172;9.226;2024-03-22T01:12:05;14.57;;;8.18;;
38027;SDS011;23837;51.172;9.226;2024-03-22T01:14:30;12.93;;;7.57;;
38027;SDS011;23837;51.172;9.226;2024-03-22T01:16:56;12.95;;;7.22;;
38027;SDS011;23837;51.172;9.226;2024-03-22T01:19:21;12.98;;;7.75;;
38027;SDS011;23837;51.172;9.226;2024-03-22T01:21:48;13.90;;;8.15;;
38027;SDS011;23837;51.172;9.226;2024-03-22T01:24:13;14.60;;;7.85;;
38027;SDS011;23837;51.172;9.226;2024-03-22T01:26:39;14.13;;;7.22;;
38027;SDS011;23837;51.172;9.226;2024-03-22T01:29:04;13.68;;;7.97;;
38027;SDS011;23837;51.172;9.226;2024-03-22T01:31:29;13.50;;;7.80;;
38027;SDS011;23837;51.172;9.226;2024-03-22T01:33:55;13.07;;;8.40;;
38027;SDS011;23837;51.172;9.226;2024-03-22T01:36:20;14.30;;;8.75;;
38027;SDS011;23837;51.172;9.226;2024-03-22T01:38:45;12.30;;;8.02;;
38027;SDS011;23837;51.172;9.226;2024-03-22T01:41:11;16.52;;;8.40;;
38027;SDS011;23837;51.172;9.226;2024-03-22T01:43:36;13.13;;;7.68;;
38027;SDS011;23837;51.172;9.226;2024-03-22T01:46:01;14.82;;;7.82;;
38027;SDS011;23837;51.172;9.226;2024-03-22T01:48:26;13.48;;;8.10;;
38027;SDS011;23837;51.172;9.226;2024-03-22T01:50:52;15.32;;;7.80;;
38027;SDS011;23837;51.172;9.226;2024-03-22T01:53:17;14.85;;;8.05;;
38027;SDS011;23837;51.172;9.226;2024-03-22T01:55:43;19.17;;;9.20;;
38027;SDS011;23837;51.172;9.226;2024-03-22T01:58:08;21.77;;;9.95;;
38027;SDS011;23837;51.172;9.226;2024-03-22T02:00:34;25.23;;;10.65;;
38027;SDS011;23837;51.172;9.226;2024-03-22T02:02:59;25.52;;;10.80;;
38027;SDS011;23837;51.172;9.226;2024-03-22T02:05:24;24.40;;;11.07;;
38027;SDS011;23837;51.172;9.226;2024-03-22T02:07:50;31.42;;;11.98;;
38027;SDS011;23837;51.172;9.226;2024-03-22T02:10:15;24.13;;;9.82;;
38027;SDS011;23837;51.172;9.226;2024-03-22T02:12:41;65.03;;;18.38;;
38027;SDS011;23837;51.172;9.226;2024-03-22T02:15:07;62.85;;;17.83;;
38027;SDS011;23837;51.172;9.226;2024-03-22T02:17:33;56.03;;;16.20;;
38027;SDS011;23837;51.172;9.226;2024-03-22T02:19:59;55.28;;;18.58;;
38027;SDS011;23837;51.172;9.226;2024-03-22T02:22:25;48.08;;;16.92;;
38027;SDS011;23837;51.172;9.226;2024-03-22T02:24:51;113.65;;;29.42;;
38027;SDS011;23837;51.172;9.226;2024-03-22T02:27:16;116.82;;;30.60;;
38027;SDS011;23837;51.172;9.226;2024-03-22T02:29:42;66.38;;;21.40;;
38027;SDS011;23837;51.172;9.226;2024-03-22T02:32:07;33.40;;;13.15;;
38027;SDS011;23837;51.172;9.226;2024-03-22T02:34:32;29.58;;;12.15;;
38027;SDS011;23837;51.172;9.226;2024-03-22T02:36:58;23.98;;;10.57;;
38027;SDS011;23837;51.172;9.226;2024-03-22T02:39:23;28.05;;;11.40;;
38027;SDS011;23837;51.172;9.226;2024-03-22T02:41:50;37.67;;;14.07;;
38027;SDS011;23837;51.172;9.226;2024-03-22T02:44:15;35.28;;;12.80;;
38027;SDS011;23837;51.172;9.226;2024-03-22T02:46:41;32.75;;;11.93;;
38027;SDS011;23837;51.172;9.226;2024-03-22T02:49:06;18.85;;;9.43;;
38027;SDS011;23837;51.172;9.226;2024-03-22T02:51:31;19.35;;;9.63;;
38027;SDS011;23837;51.172;9.226;2024-03-22T02:53:57;17.92;;;9.05;;
38027;SDS011;23837;51.172;9.226;2024-03-22T02:56:22;20.05;;;9.65;;
38027;SDS011;23837;51.172;9.226;2024-03-22T02:58:48;19.77;;;9.27;;
38027;SDS011;23837;51.172;9.226;2024-03-22T03:01:14;22.00;;;10.40;;
38027;SDS011;23837;51.172;9.226;2024-03-22T03:03:39;18.42;;;9.15;;
38027;SDS011;23837;51.172;9.226;2024-03-22T03:06:04;17.52;;;9.38;;
38027;SDS011;23837;51.172;9.226;2024-03-22T03:08:30;19.55;;;9.43;;
38027;SDS011;23837;51.172;9.226;2024-03-22T03:10:55;17.38;;;8.57;;
38027;SDS011;23837;51.172;9.226;2024-03-22T03:13:21;21.88;;;9.60;;
38027;SDS011;23837;51.172;9.226;2024-03-22T03:15:46;17.75;;;9.38;;
38027;SDS011;23837;51.172;9.226;2024-03-22T03:18:11;18.50;;;9.65;;
38027;SDS011;23837;51.172;9.226;2024-03-22T03:20:37;20.35;;;9.77;;
38027;SDS011;23837;51.172;9.226;2024-03-22T03:23:03;20.77;;;10.25;;
38027;SDS011;23837;51.172;9.226;2024-03-22T03:25:28;23.33;;;10.95;;
38027;SDS011;23837;51.172;9.226;2024-03-22T03:27:53;21.58;;;10.95;;
38027;SDS011;23837;51.172;9.226;2024-03-22T03:30:19;23.38;;;10.98;;
38027;SDS011;23837;51.172;9.226;2024-03-22T03:32:44;23.27;;;11.52;;
38027;SDS011;23837;51.172;9.226;2024-03-22T03:35:09;24.67;;;11.55;;
38027;SDS011;23837;51.172;9.226;2024-03-22T03:37:35;23.45;;;10.93;;
38027;SDS011;23837;51.172;9.226;2024-03-22T03:40:00;25.58;;;11.23;;
38027;SDS011;23837;51.172;9.226;2024-03-22T03:42:25;25.08;;;11.57;;
38027;SDS011;23837;51.172;9.226;2024-03-22T03:44:51;24.60;;;11.05;;
38027;SDS011;23837;51.172;9.226;2024-03-22T03:47:16;20.92;;;10.60;;
38027;SDS011;23837;51.172;9.226;2024-03-22T03:49:41;27.88;;;12.02;;
38027;SDS011;23837;51.172;9.226;2024-03-22T03:52:07;28.48;;;12.45;;
38027;SDS011;23837;51.172;9.226;2024-03-22T03:54:32;28.58;;;12.98;;
38027;SDS011;23837;51.172;9.226;2024-03-22T03:56:57;26.58;;;12.50;;
38027;SDS011;23837;51.172;9.226;2024-03-22T03:59:23;28.00;;;11.55;;
38027;SDS011;23837;51.172;9.226;2024-03-22T04:01:49;21.73;;;10.13;;
38027;SDS011;23837;51.172;9.226;2024-03-22T04:04:15;20.73;;;10.35;;
38027;SDS011;23837;51.172;9.226;2024-03-22T04:06:40;21.33;;;10.88;;
38027;SDS011;23837;51.172;9.226;2024-03-22T04:09:05;22.15;;;11.05;;
38027;SDS011;23837;51.172;9.226;2024-03-22T04:11:31;25.95;;;11.50;;
38027;SDS011;23837;51.172;9.226;2024-03-22T04:13:56;24.65;;;11.20;;
38027;SDS011;23837;51.172;9.226;2024-03-22T04:16:21;20.77;;;10.40;;
38027;SDS011;23837;51.172;9.226;2024-03-22T04:18:47;20.75;;;10.57;;
38027;SDS011;23837;51.172;9.226;2024-03-22T04:21:12;28.85;;;11.50;;
38027;SDS011;23837;51.172;9.226;2024-03-22T04:23:37;27.42;;;12.13;;
38027;SDS011;23837;51.172;9.226;2024-03-22T04:26:02;110.53;;;27.27;;
38027;SDS011;23837;51.172;9.226;2024-03-22T04:28:28;100.70;;;25.60;;
38027;SDS011;23837;51.172;9.226;2024-03-22T04:30:54;45.63;;;16.25;;
38027;SDS011;23837;51.172;9.226;2024-03-22T04:33:19;44.40;;;15.45;;
38027;SDS011;23837;51.172;9.226;2024-03-22T04:35:45;32.88;;;12.98;;
38027;SDS011;23837;51.172;9.226;2024-03-22T04:38:10;25.50;;;11.40;;
38027;SDS011;23837;51.172;9.226;2024-03-22T04:40:36;54.30;;;18.90;;
38027;SDS011;23837;51.172;9.226;2024-03-22T04:43:01;54.35;;;19.27;;
38027;SDS011;23837;51.172;9.226;2024-03-22T04:45:27;49.30;;;17.70;;
38027;SDS011;23837;51.172;9.226;2024-03-22T04:47:52;33.63;;;13.95;;
38027;SDS011;23837;51.172;9.226;2024-03-22T04:50:17;33.53;;;14.07;;
38027;SDS011;23837;51.172;9.226;2024-03-22T04:52:43;29.92;;;13.57;;
38027;SDS011;23837;51.172;9.226;2024-03-22T04:55:08;29.08;;;13.38;;
38027;SDS011;23837;51.172;9.226;2024-03-22T04:57:33;25.30;;;13.20;;
38027;SDS011;23837;51.172;9.226;2024-03-22T04:59:59;28.50;;;12.73;;
38027;SDS011;23837;51.172;9.226;2024-03-22T05:02:24;38.58;;;15.80;;
38027;SDS011;23837;51.172;9.226;2024-03-22T05:04:49;30.90;;;13.50;;
38027;SDS011;23837;51.172;9.226;2024-03-22T05:07:15;32.50;;;13.98;;
38027;SDS011;23837;51.172;9.226;2024-03-22T05:09:40;29.48;;;13.43;;
38027;SDS011;23837;51.172;9.226;2024-03-22T05:12:05;31.35;;;14.48;;
38027;SDS011;23837;51.172;9.226;2024-03-22T05:14:31;28.50;;;13.02;;
38027;SDS011;23837;51.172;9.226;2024-03-22T05:16:56;37.58;;;15.55;;
38027;SDS011;23837;51.172;9.226;2024-03-22T05:19:21;34.33;;;14.75;;
38027;SDS011;23837;51.172;9.226;2024-03-22T05:21:47;35.90;;;15.25;;
38027;SDS011;23837;51.172;9.226;2024-03-22T05:24:12;56.35;;;18.75;;
38027;SDS011;23837;51.172;9.226;2024-03-22T05:26:37;48.13;;;18.20;;
38027;SDS011;23837;51.172;9.226;2024-03-22T05:29:03;51.90;;;18.45;;
38027;SDS011;23837;51.172;9.226;2024-03-22T05:31:28;36.40;;;14.88;;
38027;SDS011;23837;51.172;9.226;2024-03-22T05:33:53;38.30;;;14.82;;
38027;SDS011;23837;51.172;9.226;2024-03-22T05:36:19;42.88;;;16.08;;
38027;SDS011;23837;51.172;9.226;2024-03-22T05:38:44;42.67;;;15.57;;
38027;SDS011;23837;51.172;9.226;2024-03-22T05:41:09;44.03;;;16.75;;
38027;SDS011;23837;51.172;9.226;2024-03-22T05:43:35;39.58;;;15.82;;
38027;SDS011;23837;51.172;9.226;2024-03-22T05:46:00;40.08;;;16.42;;
38027;SDS011;23837;51.172;9.226;2024-03-22T05:48:25;44.08;;;16.65;;
38027;SDS011;23837;51.172;9.226;2024-03-22T05:50:51;41.67;;;16.70;;
38027;SDS011;23837;51.172;9.226;2024-03-22T05:53:17;44.63;;;17.30;;
38027;SDS011;23837;51.172;9.226;2024-03-22T05:55:43;45.33;;;16.60;;
38027;SDS011;23837;51.172;9.226;2024-03-22T05:58:08;45.78;;;17.88;;
38027;SDS011;23837;51.172;9.226;2024-03-22T06:00:34;46.38;;;17.48;;
38027;SDS011;23837;51.172;9.226;2024-03-22T06:02:59;47.13;;;17.58;;
38027;SDS011;23837;51.172;9.226;2024-03-22T06:05:25;49.85;;;20.00;;
38027;SDS011;23837;51.172;9.226;2024-03-22T06:07:50;50.92;;;19.33;;
38027;SDS011;23837;51.172;9.226;2024-03-22T06:10:15;51.13;;;20.00;;
38027;SDS011;23837;51.172;9.226;2024-03-22T06:12:42;50.63;;;19.45;;
38027;SDS011;23837;51.172;9.226;2024-03-22T06:15:09;49.35;;;19.10;;
38027;SDS011;23837;51.172;9.226;2024-03-22T06:17:35;49.33;;;19.05;;
38027;SDS011;23837;51.172;9.226;2024-03-22T06:20:00;49.22;;;18.42;;
38027;SDS011;23837;51.172;9.226;2024-03-22T06:22:26;53.15;;;19.95;;
38027;SDS011;23837;51.172;9.226;2024-03-22T06:24:52;53.28;;;19.65;;
38027;SDS011;23837;51.172;9.226;2024-03-22T06:27:18;56.92;;;19.73;;
38027;SDS011;23837;51.172;9.226;2024-03-22T06:29:43;58.25;;;20.58;;
38027;SDS011;23837;51.172;9.226;2024-03-22T06:32:08;58.85;;;20.00;;
38027;SDS011;23837;51.172;9.226;2024-03-22T06:34:34;54.47;;;19.17;;
38027;SDS011;23837;51.172;9.226;2024-03-22T06:36:59;56.95;;;20.00;;
38027;SDS011;23837;51.172;9.226;2024-03-22T06:39:25;56.75;;;19.63;;
38027;SDS011;23837;51.172;9.226;2024-03-22T06:41:50;54.92;;;19.55;;
38027;SDS011;23837;51.172;9.226;2024-03-22T06:44:15;55.00;;;18.88;;
38027;SDS011;23837;51.172;9.226;2024-03-22T06:46:41;46.97;;;18.25;;
38027;SDS011;23837;51.172;9.226;2024-03-22T06:49:06;54.70;;;18.98;;
38027;SDS011;23837;51.172;9.226;2024-03-22T06:51:32;44.05;;;16.67;;
38027;SDS011;23837;51.172;9.226;2024-03-22T06:53:57;49.05;;;18.55;;
38027;SDS011;23837;51.172;9.226;2024-03-22T06:56:22;50.45;;;18.10;;
38027;SDS011;23837;51.172;9.226;2024-03-22T06:58:48;48.40;;;17.92;;
38027;SDS011;23837;51.172;9.226;2024-03-22T07:01:13;48.10;;;17.33;;
38027;SDS011;23837;51.172;9.226;2024-03-22T07:03:38;43.35;;;16.73;;
38027;SDS011;23837;51.172;9.226;2024-03-22T07:06:04;41.72;;;17.05;;
38027;SDS011;23837;51.172;9.226;2024-03-22T07:08:32;39.85;;;16.02;;
38027;SDS011;23837;51.172;9.226;2024-03-22T07:10:58;38.75;;;16.13;;
38027;SDS011;23837;51.172;9.226;2024-03-22T07:13:23;36.55;;;14.80;;
38027;SDS011;23837;51.172;9.226;2024-03-22T07:15:48;60.42;;;25.25;;
38027;SDS011;23837;51.172;9.226;2024-03-22T07:18:14;42.67;;;18.85;;
38027;SDS011;23837;51.172;9.226;2024-03-22T07:20:40;70.68;;;28.85;;
38027;SDS011;23837;51.172;9.226;2024-03-22T07:23:05;36.35;;;14.48;;
38027;SDS011;23837;51.172;9.226;2024-03-22T07:25:31;40.47;;;18.00;;
38027;SDS011;23837;51.172;9.226;2024-03-22T07:27:56;37.35;;;17.08;;
38027;SDS011;23837;51.172;9.226;2024-03-22T07:30:22;34.17;;;14.88;;
38027;SDS011;23837;51.172;9.226;2024-03-22T07:32:47;30.52;;;13.52;;
38027;SDS011;23837;51.172;9.226;2024-03-22T07:35:12;31.33;;;13.52;;
38027;SDS011;23837;51.172;9.226;2024-03-22T07:37:38;26.88;;;12.80;;
38027;SDS011;23837;51.172;9.226;2024-03-22T07:40:03;28.27;;;13.05;;
38027;SDS011;23837;51.172;9.226;2024-03-22T07:42:30;30.35;;;14.27;;
38027;SDS011;23837;51.172;9.226;2024-03-22T07:44:56;27.05;;;12.93;;
38027;SDS011;23837;51.172;9.226;2024-03-22T07:47:21;28.27;;;12.73;;
38027;SDS011;23837;51.172;9.226;2024-03-22T07:49:46;31.77;;;14.68;;
38027;SDS011;23837;51.172;9.226;2024-03-22T07:52:11;28.98;;;13.13;;
38027;SDS011;23837;51.172;9.226;2024-03-22T07:54:37;28.13;;;12.77;;
38027;SDS011;23837;51.172;9.226;2024-03-22T07:57:02;24.55;;;12.13;;
38027;SDS011;23837;51.172;9.226;2024-03-22T07:59:29;27.27;;;12.55;;
38027;SDS011;23837;51.172;9.226;2024-03-22T08:01:54;23.23;;;11.48;;
38027;SDS011;23837;51.172;9.226;2024-03-22T08:04:19;24.15;;;12.05;;
38027;SDS011;23837;51.172;9.226;2024-03-22T08:06:45;21.83;;;10.45;;
38027;SDS011;23837;51.172;9.226;2024-03-22T08:09:11;24.63;;;12.48;;
38027;SDS011;23837;51.172;9.226;2024-03-22T08:11:36;27.30;;;14.50;;
38027;SDS011;23837;51.172;9.226;2024-03-22T08:14:01;32.10;;;15.63;;
38027;SDS011;23837;51.172;9.226;2024-03-22T08:16:31;21.60;;;11.65;;
38027;SDS011;23837;51.172;9.226;2024-03-22T08:18:57;22.67;;;13.88;;
38027;SDS011;23837;51.172;9.226;2024-03-22T08:21:22;22.27;;;11.73;;
38027;SDS011;23837;51.172;9.226;2024-03-22T08:23:48;20.85;;;10.75;;
38027;SDS011;23837;51.172;9.226;2024-03-22T08:26:13;18.75;;;10.77;;
38027;SDS011;23837;51.172;9.226;2024-03-22T08:28:39;17.67;;;9.85;;
38027;SDS011;23837;51.172;9.226;2024-03-22T08:31:04;20.88;;;10.77;;
38027;SDS011;23837;51.172;9.226;2024-03-22T08:33:30;20.15;;;10.55;;
38027;SDS011;23837;51.172;9.226;2024-03-22T08:35:55;19.80;;;11.18;;
38027;SDS011;23837;51.172;9.226;2024-03-22T08:38:21;18.40;;;10.48;;
38027;SDS011;23837;51.172;9.226;2024-03-22T08:40:46;18.83;;;10.70;;
38027;SDS011;23837;51.172;9.226;2024-03-22T08:43:11;19.52;;;10.77;;
38027;SDS011;23837;51.172;9.226;2024-03-22T08:45:37;17.45;;;10.60;;
38027;SDS011;23837;51.172;9.226;2024-03-22T08:48:02;17.63;;;10.05;;
38027;SDS011;23837;51.172;9.226;2024-03-22T08:50:27;17.80;;;10.45;;
38027;SDS011;23837;51.172;9.226;2024-03-22T08:52:53;18.83;;;10.70;;
38027;SDS011;23837;51.172;9.226;2024-03-22T08:55:18;18.80;;;10.80;;
38027;SDS011;23837;51.172;9.226;2024-03-22T08:57:43;18.33;;;10.75;;
38027;SDS011;23837;51.172;9.226;2024-03-22T09:00:09;20.35;;;10.68;;
38027;SDS011;23837;51.172;9.226;2024-03-22T09:02:35;18.23;;;10.52;;
38027;SDS011;23837;51.172;9.226;2024-03-22T09:05:00;21.73;;;11.48;;
38027;SDS011;23837;51.172;9.226;2024-03-22T09:07:25;19.80;;;11.30;;
38027;SDS011;23837;51.172;9.226;2024-03-22T09:09:51;22.05;;;11.98;;
38027;SDS011;23837;51.172;9.226;2024-03-22T09:12:16;18.25;;;10.18;;
38027;SDS011;23837;51.172;9.226;2024-03-22T09:14:41;20.98;;;10.93;;
38027;SDS011;23837;51.172;9.226;2024-03-22T09:17:07;21.88;;;11.10;;
38027;SDS011;23837;51.172;9.226;2024-03-22T09:19:32;25.05;;;12.65;;
38027;SDS011;23837;51.172;9.226;2024-03-22T09:21:58;21.92;;;12.35;;
38027;SDS011;23837;51.172;9.226;2024-03-22T09:24:23;21.02;;;12.07;;
38027;SDS011;23837;51.172;9.226;2024-03-22T09:26:48;21.58;;;12.15;;
38027;SDS011;23837;51.172;9.226;2024-03-22T09:29:14;28.95;;;13.38;;
38027;SDS011;23837;51.172;9.226;2024-03-22T09:31:39;23.25;;;12.35;;
38027;SDS011;23837;51.172;9.226;2024-03-22T09:34:04;22.83;;;12.40;;
38027;SDS011;23837;51.172;9.226;2024-03-22T09:36:30;21.13;;;11.65;;
38027;SDS011;23837;51.172;9.226;2024-03-22T09:38:59;21.77;;;11.68;;
38027;SDS011;23837;51.172;9.226;2024-03-22T09:41:25;22.63;;;12.15;;
38027;SDS011;23837;51.172;9.226;2024-03-22T09:43:54;23.42;;;12.88;;
38027;SDS011;23837;51.172;9.226;2024-03-22T09:46:21;22.15;;;12.98;;
38027;SDS011;23837;51.172;9.226;2024-03-22T09:48:47;21.67;;;12.93;;
38027;SDS011;23837;51.172;9.226;2024-03-22T09:51:13;20.52;;;11.70;;
38027;SDS011;23837;51.172;9.226;2024-03-22T09:53:40;21.50;;;12.30;;
38027;SDS011;23837;51.172;9.226;2024-03-22T09:56:06;22.38;;;12.00;;
38027;SDS011;23837;51.172;9.226;2024-03-22T09:58:32;24.50;;;12.82;;
38027;SDS011;23837;51.172;9.226;2024-03-22T10:00:57;22.45;;;12.02;;
38027;SDS011;23837;51.172;9.226;2024-03-22T10:03:26;21.25;;;11.63;;
38027;SDS011;23837;51.172;9.226;2024-03-22T10:05:51;21.25;;;11.73;;
38027;SDS011;23837;51.172;9.226;2024-03-22T10:08:16;21.30;;;11.68;;
38027;SDS011;23837;51.172;9.226;2024-03-22T10:10:42;21.60;;;11.80;;
38027;SDS011;23837;51.172;9.226;2024-03-22T10:13:07;21.85;;;11.85;;
38027;SDS011;23837;51.172;9.226;2024-03-22T10:15:33;21.25;;;12.20;;
38027;SDS011;23837;51.172;9.226;2024-03-22T10:17:58;19.58;;;11.27;;
38027;SDS011;23837;51.172;9.226;2024-03-22T10:20:23;17.25;;;10.40;;
38027;SDS011;23837;51.172;9.226;2024-03-22T10:22:53;19.95;;;10.88;;
38027;SDS011;23837;51.172;9.226;2024-03-22T10:25:19;18.88;;;10.60;;
38027;SDS011;23837;51.172;9.226;2024-03-22T10:27:45;20.88;;;11.80;;
38027;SDS011;23837;51.172;9.226;2024-03-22T10:30:10;19.35;;;10.63;;
38027;SDS011;23837;51.172;9.226;2024-03-22T10:32:37;19.92;;;11.02;;
38027;SDS011;23837;51.172;9.226;2024-03-22T10:35:02;21.05;;;11.75;;
38027;SDS011;23837;51.172;9.226;2024-03-22T10:37:31;17.80;;;10.23;;
38027;SDS011;23837;51.172;9.226;2024-03-22T10:39:57;18.67;;;10.27;;
38027;SDS011;23837;51.172;9.226;2024-03-22T10:42:23;19.73;;;10.38;;
38027;SDS011;23837;51.172;9.226;2024-03-22T10:44:49;18.40;;;10.27;;
38027;SDS011;23837;51.172;9.226;2024-03-22T10:47:14;17.60;;;10.20;;
38027;SDS011;23837;51.172;9.226;2024-03-22T10:49:42;18.63;;;11.05;;
38027;SDS011;23837;51.172;9.226;2024-03-22T10:52:08;19.58;;;10.73;;
38027;SDS011;23837;51.172;9.226;2024-03-22T10:54:36;18.70;;;10.87;;
38027;SDS011;23837;51.172;9.226;2024-03-22T10:57:03;18.40;;;10.55;;
38027;SDS011;23837;51.172;9.226;2024-03-22T10:59:33;21.73;;;10.73;;
38027;SDS011;23837;51.172;9.226;2024-03-22T11:02:02;15.90;;;9.70;;
38027;SDS011;23837;51.172;9.226;2024-03-22T11:04:29;17.63;;;9.98;;
38027;SDS011;23837;51.172;9.226;2024-03-22T11:06:56;17.48;;;9.43;;
38027;SDS011;23837;51.172;9.226;2024-03-22T11:11:48;18.98;;;9.85;;
38027;SDS011;23837;51.172;9.226;2024-03-22T11:14:13;14.95;;;9.10;;
38027;SDS011;23837;51.172;9.226;2024-03-22T11:16:42;16.73;;;9.65;;
38027;SDS011;23837;51.172;9.226;2024-03-22T11:19:07;16.30;;;9.30;;
38027;SDS011;23837;51.172;9.226;2024-03-22T11:21:33;15.57;;;8.77;;
38027;SDS011;23837;51.172;9.226;2024-03-22T11:24:01;14.35;;;8.85;;
38027;SDS011;23837;51.172;9.226;2024-03-22T11:26:27;13.57;;;8.43;;
38027;SDS011;23837;51.172;9.226;2024-03-22T11:28:52;14.73;;;9.05;;
38027;SDS011;23837;51.172;9.226;2024-03-22T11:31:18;15.93;;;8.35;;
38027;SDS011;23837;51.172;9.226;2024-03-22T11:33:45;13.93;;;8.02;;
38027;SDS011;23837;51.172;9.226;2024-03-22T11:36:10;14.60;;;9.10;;
38027;SDS011;23837;51.172;9.226;2024-03-22T11:38:36;15.85;;;10.02;;
38027;SDS011;23837;51.172;9.226;2024-03-22T11:41:01;14.90;;;8.57;;
38027;SDS011;23837;51.172;9.226;2024-03-22T11:43:28;14.52;;;8.52;;
38027;SDS011;23837;51.172;9.226;2024-03-22T11:45:54;14.65;;;8.38;;
38027;SDS011;23837;51.172;9.226;2024-03-22T11:48:20;14.85;;;8.32;;
38027;SDS011;23837;51.172;9.226;2024-03-22T11:50:45;13.63;;;8.38;;
38027;SDS011;23837;51.172;9.226;2024-03-22T11:53:11;14.07;;;8.15;;
38027;SDS011;23837;51.172;9.226;2024-03-22T11:55:36;13.70;;;7.70;;
38027;SDS011;23837;51.172;9.226;2024-03-22T11:58:01;14.63;;;8.15;;
38027;SDS011;23837;51.172;9.226;2024-03-22T12:00:27;13.23;;;7.88;;
38027;SDS011;23837;51.172;9.226;2024-03-22T12:02:53;14.23;;;7.65;;
38027;SDS011;23837;51.172;9.226;2024-03-22T12:05:18;13.30;;;7.35;;
38027;SDS011;23837;51.172;9.226;2024-03-22T12:07:44;11.02;;;7.82;;
38027;SDS011;23837;51.172;9.226;2024-03-22T12:10:09;13.07;;;7.70;;
38027;SDS011;23837;51.172;9.226;2024-03-22T12:12:35;12.82;;;7.82;;
38027;SDS011;23837;51.172;9.226;2024-03-22T12:15:01;13.93;;;8.07;;
38027;SDS011;23837;51.172;9.226;2024-03-22T12:17:27;13.45;;;7.13;;
38027;SDS011;23837;51.172;9.226;2024-03-22T12:19:53;7.18;;;4.72;;
38027;SDS011;23837;51.172;9.226;2024-03-22T12:22:18;7.13;;;4.07;;
38027;SDS011;23837;51.172;9.226;2024-03-22T12:24:43;7.90;;;4.60;;
38027;SDS011;23837;51.172;9.226;2024-03-22T12:27:09;6.80;;;4.50;;
38027;SDS011;23837;51.172;9.226;2024-03-22T12:29:34;6.95;;;4.38;;
38027;SDS011;23837;51.172;9.226;2024-03-22T12:32:01;6.82;;;4.40;;
38027;SDS011;23837;51.172;9.226;2024-03-22T12:34:27;7.25;;;4.32;;
38027;SDS011;23837;51.172;9.226;2024-03-22T12:36:54;5.95;;;4.00;;
38027;SDS011;23837;51.172;9.226;2024-03-22T12:39:19;6.63;;;4.03;;
38027;SDS011;23837;51.172;9.226;2024-03-22T12:41:45;6.20;;;4.20;;
38027;SDS011;23837;51.172;9.226;2024-03-22T12:44:10;5.32;;;3.80;;
38027;SDS011;23837;51.172;9.226;2024-03-22T12:46:35;6.35;;;4.03;;
38027;SDS011;23837;51.172;9.226;2024-03-22T12:49:01;7.28;;;4.30;;
38027;SDS011;23837;51.172;9.226;2024-03-22T12:51:26;6.35;;;4.18;;
38027;SDS011;23837;51.172;9.226;2024-03-22T12:53:51;5.88;;;4.00;;
38027;SDS011;23837;51.172;9.226;2024-03-22T12:56:17;7.22;;;4.10;;
38027;SDS011;23837;51.172;9.226;2024-03-22T12:58:42;8.77;;;4.15;;
38027;SDS011;23837;51.172;9.226;2024-03-22T13:01:08;5.95;;;3.72;;
38027;SDS011;23837;51.172;9.226;2024-03-22T13:03:36;8.65;;;4.10;;
38027;SDS011;23837;51.172;9.226;2024-03-22T13:06:02;5.18;;;3.35;;
38027;SDS011;23837;51.172;9.226;2024-03-22T13:08:27;5.20;;;3.42;;
38027;SDS011;23837;51.172;9.226;2024-03-22T13:10:53;4.95;;;3.55;;
38027;SDS011;23837;51.172;9.226;2024-03-22T13:13:18;5.75;;;3.40;;
38027;SDS011;23837;51.172;9.226;2024-03-22T13:15:44;5.90;;;3.60;;
38027;SDS011;23837;51.172;9.226;2024-03-22T13:18:09;5.15;;;3.72;;
38027;SDS011;23837;51.172;9.226;2024-03-22T13:20:35;5.50;;;3.63;;
38027;SDS011;23837;51.172;9.226;2024-03-22T13:23:00;5.65;;;3.55;;
38027;SDS011;23837;51.172;9.226;2024-03-22T13:25:26;6.45;;;3.80;;
38027;SDS011;23837;51.172;9.226;2024-03-22T13:27:52;5.68;;;3.85;;
38027;SDS011;23837;51.172;9.226;2024-03-22T13:30:17;5.22;;;3.22;;
38027;SDS011;23837;51.172;9.226;2024-03-22T13:32:42;5.78;;;3.85;;
38027;SDS011;23837;51.172;9.226;2024-03-22T13:35:08;5.47;;;3.83;;
38027;SDS011;23837;51.172;9.226;2024-03-22T13:37:33;6.45;;;3.92;;
38027;SDS011;23837;51.172;9.226;2024-03-22T13:39:59;5.07;;;3.45;;
38027;SDS011;23837;51.172;9.226;2024-03-22T13:42:25;5.35;;;3.80;;
38027;SDS011;23837;51.172;9.226;2024-03-22T13:44:51;7.28;;;4.00;;
38027;SDS011;23837;51.172;9.226;2024-03-22T13:47:16;5.72;;;3.63;;
38027;SDS011;23837;51.172;9.226;2024-03-22T13:49:42;8.43;;;4.30;;
38027;SDS011;23837;51.172;9.226;2024-03-22T13:52:08;6.43;;;4.15;;
38027;SDS011;23837;51.172;9.226;2024-03-22T13:54:34;7.28;;;3.70;;
38027;SDS011;23837;51.172;9.226;2024-03-22T13:56:59;5.55;;;3.97;;
38027;SDS011;23837;51.172;9.226;2024-03-22T13:59:26;7.78;;;4.00;;
38027;SDS011;23837;51.172;9.226;2024-03-22T14:01:51;8.00;;;4.55;;
38027;SDS011;23837;51.172;9.226;2024-03-22T14:04:17;6.75;;;4.05;;
38027;SDS011;23837;51.172;9.226;2024-03-22T14:06:44;7.30;;;4.60;;
38027;SDS011;23837;51.172;9.226;2024-03-22T14:09:10;6.95;;;4.60;;
38027;SDS011;23837;51.172;9.226;2024-03-22T14:11:38;8.02;;;4.70;;
38027;SDS011;23837;51.172;9.226;2024-03-22T14:14:03;8.98;;;4.80;;
38027;SDS011;23837;51.172;9.226;2024-03-22T14:16:29;6.50;;;4.32;;
38027;SDS011;23837;51.172;9.226;2024-03-22T14:18:55;6.93;;;4.05;;
38027;SDS011;23837;51.172;9.226;2024-03-22T14:21:20;7.13;;;4.10;;